Flight Track Log - Related Links

Times and Time Zones

All times are in EDT time to prevent confusion due to time zone crossing. See the DAL1884 flight status page for this flight to view local times or setup timezone preferences in your user account.

Time Position Orientation Groundspeed Altitude Reporting Facility
EDT Latitude Longitude Course Direction KTS MPH feet Rate Location/Type
Mon 07:09:24 AM 29.9614 -95.3411 90° East 167 192 900  Level Houston Center
Mon 07:10:55 AM 29.9125 -95.2650 127° Southeast 261 300 3,700 1,651 Climbing Houston Center
Mon 07:11:13 AM 29.9039 -95.2511 126° Southeast 238 274 3,900 2,852 Climbing Houston Center
Mon 07:11:56 AM 29.8714 -95.1833 119° Southeast 292 336 6,600 3,344 Climbing Houston Center
Mon 07:12:00 AM 29.9834 -94.9022 90° East  Level FlightAware Approximate
Mon 07:12:14 AM 29.8675 -95.1692 108° East 284 327 7,300  Level Houston Center
Mon 07:13:00 AM 29.9834 -94.7585 90° East  Level FlightAware Approximate
Mon 07:13:14 AM 29.8653 -95.0772 92° East 298 343 10,400  Level Houston Center
Mon 07:14:00 AM 29.9833 -94.6148 90° East  Level FlightAware Approximate
Mon 07:14:15 AM 29.8861 -94.9703 77° East 338 389 12,100  Level Houston Center
Mon 07:15:16 AM 29.9069 -94.8450 79° East 392 451 14,900 2,777 Climbing Houston Center
Mon 07:16:16 AM 29.9286 -94.7167 79° East 405 466 17,700 2,430 Climbing Houston Center
Mon 07:17:17 AM 29.9508 -94.5825 79° East 422 486 19,800 2,115 Climbing Houston Center
Mon 07:18:18 AM 29.9739 -94.4417 79° East 438 504 22,000 2,016 Climbing Houston Center
Mon 07:19:19 AM 29.9983 -94.2981 79° East 456 525 23,900 1,721 Climbing Houston Center
Mon 07:20:20 AM 30.0158 -94.1486 82° East 467 537 25,500 1,587 Climbing Houston Center
Mon 07:21:20 AM 30.0350 -93.9956 82° East 479 551 27,100 1,289 Climbing Houston Center
Mon 07:22:21 AM 30.0544 -93.8372 82° East 495 570 28,100 1,131 Climbing Houston Center
Mon 07:23:22 AM 30.0775 -93.6392 82° East 521 600 29,400 1,426 Climbing Houston Center
Mon 07:24:23 AM 30.0964 -93.4728 82° East 530 610 31,000 1,623 Climbing Houston Center
Mon 07:25:24 AM 30.1161 -93.3100 82° East 523 602 32,700 1,475 Climbing Houston Center
Mon 07:26:25 AM 30.1356 -93.1472 82° East 520 598 34,000 1,279 Climbing Houston Center
Mon 07:27:26 AM 30.1633 -92.9872 79° East 513 590 35,300 1,230 Climbing Houston Center
Mon 07:28:27 AM 30.1953 -92.8297 77° East 507 583 36,500 1,140 Climbing Houston Center
Mon 07:29:27 AM 30.2256 -92.6717 77° East 505 581 37,600 793 Climbing Houston Center
Mon 07:30:28 AM 30.2569 -92.5128 77° East 507 583 38,100 541 Climbing Houston Center
Mon 07:31:29 AM 30.2914 -92.3281 78° East 515 593 38,700 443 Climbing Houston Center
Mon 07:32:30 AM 30.3231 -92.1675 77° East 515 593 39,000 148 Climbing Houston Center
Mon 07:33:31 AM 30.3519 -92.0086 78° East 509 586 39,000  Level Houston Center
Mon 07:34:32 AM 30.3828 -91.8481 77° East 512 589 39,000  Level Houston Center
Mon 07:35:33 AM 30.4125 -91.6911 78° East 518 596 39,000  Level Houston Center
Mon 07:36:34 AM 30.4431 -91.5267 78° East 522 601 39,000  Level Houston Center
Mon 07:37:35 AM 30.4744 -91.3639 77° East 521 600 39,000  Level Houston Center
Mon 07:38:36 AM 30.5147 -91.1689 76° East 518 596 39,000  Level Houston Center
Mon 07:39:37 AM 30.5531 -91.0042 75° East 520 598 39,000  Level Houston Center
Mon 07:40:38 AM 30.5881 -90.8450 76° East 519 597 39,000  Level Houston Center
Mon 07:41:39 AM 30.6247 -90.6833 75° East 518 596 39,000  Level Houston Center
Mon 07:42:40 AM 30.6614 -90.5225 75° East 516 594 39,000  Level Houston Center
Mon 07:43:41 AM 30.6964 -90.3614 76° East 514 592 39,000  Level Houston Center
Mon 07:44:42 AM 30.7328 -90.2011 75° East 512 589 39,000 -49 Level Houston Center
Mon 07:45:43 AM 30.7675 -90.0414 76° East 507 583 38,900  Descending Houston Center
Mon 07:46:44 AM 30.8028 -89.8817 76° East 505 581 39,000 49 Climbing Houston Center
Mon 07:47:45 AM 30.8369 -89.7225 76° East 504 580 39,000  Level Houston Center
Mon 07:48:46 AM 30.8714 -89.5650 76° East 500 575 39,000 -49 Level Houston Center
Mon 07:49:47 AM 30.9047 -89.4100 76° East 494 568 38,900 -49 Descending Houston Center
Mon 07:50:49 AM 30.9389 -89.2536 76° East 497 572 38,900  Level Houston Center
Mon 07:51:49 AM 30.9925 -89.1081 67° East 489 563 38,900 49 Level Houston Center
Mon 07:52:51 AM 31.0497 -88.9653 65° Northeast 489 563 39,000 33 Climbing Houston Center
Mon 07:54:00 AM 31.1091 -88.8183 65° Northeast  Level FlightAware Approximate
Mon 07:54:53 AM 31.1633 -88.6739 65° Northeast 494 568 39,000  Level Houston Center
Mon 07:56:58 AM 31.2961 -88.3447 65° Northeast 486 559 39,000 32 Level Atlanta Center
Mon 07:57:58 AM 31.3533 -88.1942 66° East 496 571 39,100  Climbing Atlanta Center
Mon 07:59:58 AM 31.4736 -87.8953 65° Northeast 496 571 39,000 -25 Descending Atlanta Center
Mon 08:01:58 AM 31.6189 -87.6481 55° Northeast 488 562 39,000 -167 Level Atlanta Center
Mon 08:02:58 AM 31.6956 -87.5169 55° Northeast 488 562 38,500 -750 Descending Atlanta Center
Mon 08:03:58 AM 31.7808 -87.3761 55° Northeast 483 556 37,500 -1,000 Descending Atlanta Center
Mon 08:04:58 AM 31.8636 -87.2422 54° Northeast 488 562 36,500 -1,500 Descending Atlanta Center
Mon 08:05:58 AM 31.9442 -87.1106 54° Northeast 493 567 34,500 -2,000 Descending Atlanta Center
Mon 08:06:58 AM 32.0183 -86.9831 56° Northeast 487 560 32,500 -2,600 Descending Atlanta Center
Mon 08:08:58 AM 32.1658 -86.7353 55° Northeast 465 535 26,700 -2,633 Descending Atlanta Center
Mon 08:09:58 AM 32.2372 -86.6172 54° Northeast 455 524 24,600 -1,350 Descending Atlanta Center
Mon 08:10:58 AM 32.3044 -86.5011 56° Northeast 442 509 24,000 -300 Descending Atlanta Center
Mon 08:11:58 AM 32.3583 -86.4092 55° Northeast 430 495 24,000  Level Atlanta Center
Mon 08:12:58 AM 32.4233 -86.2856 58° Northeast 418 481 24,000  Level Atlanta Center
Mon 08:13:58 AM 32.4878 -86.1764 55° Northeast 412 474 24,000  Level Atlanta Center
Mon 08:14:58 AM 32.5672 -86.0475 54° Northeast 420 483 24,000 -250 Level Atlanta Center
Mon 08:15:58 AM 32.6358 -85.9331 55° Northeast 420 483 23,500 -750 Descending Atlanta Center
Mon 08:16:58 AM 32.7003 -85.8186 56° Northeast 420 483 22,500 -1,000 Descending Atlanta Center
Mon 08:17:58 AM 32.7644 -85.7064 56° Northeast 420 483 21,500 -1,000 Descending Atlanta Center
Mon 08:18:58 AM 32.8264 -85.5986 56° Northeast 410 472 20,500 -1,000 Descending Atlanta Center
Mon 08:19:58 AM 32.8881 -85.4908 56° Northeast 399 459 19,500 -1,000 Descending Atlanta Center
Mon 08:21:00 AM 32.9487 -85.3693 59° Northeast  Level FlightAware Approximate
Mon 08:21:58 AM 33.0094 -85.2775 59° Northeast 393 452 17,500  Level Atlanta Center
Mon 08:22:58 AM 33.0667 -85.1889 52° Northeast 388 447 15,900 -1,167 Descending Atlanta Center
Mon 08:24:58 AM 33.2061 -85.0022 48° Northeast 348 400 14,000 -1,133 Descending Atlanta Center
Mon 08:25:58 AM 33.2650 -84.9233 48° Northeast 325 374 12,500 -1,000 Descending Atlanta Center
Mon 08:26:58 AM 33.3261 -84.8419 48° Northeast 319 367 12,000 -254 Descending Atlanta Center
Mon 08:27:56 AM 33.3833 -84.7667 48° Northeast 322 371 12,000 48 Level Atlanta TRACON
Mon 08:29:02 AM 33.4500 -84.6833 46° Northeast 282 325 12,100  Climbing Atlanta TRACON
Mon 08:30:02 AM 33.5000 -84.6167 48° Northeast 273 314 12,000 -667 Descending Atlanta TRACON
Mon 08:32:02 AM 33.5500 -84.4500 70° East 273 314 10,100 -1,233 Descending Atlanta TRACON
Mon 08:33:02 AM 33.5500 -84.3667 90° East 261 300 8,300 -1,842 Descending Atlanta TRACON
Mon 08:33:56 AM 33.5500 -84.2833 90° East 251 289 6,600 -1,308 Descending Atlanta TRACON
Mon 08:35:00 AM 33.5333 -84.1363 90° East  Level FlightAware Approximate
Mon 08:36:56 AM 33.5833 -84.0833 301° West 195 224 3,200  Level Atlanta TRACON
Mon 08:38:00 AM 33.5718 -84.2371 287° West  Level FlightAware Approximate
Mon 08:39:02 AM 33.6167 -84.2000 287° West 170 196 3,000  Level Atlanta TRACON
Mon 08:39:56 AM 33.6167 -84.2500 270° West 170 196 3,000 -276 Level Atlanta TRACON
Mon 08:41:56 AM 33.6167 -84.3500 270° West 127 146 2,200 -500 Descending Atlanta TRACON
Mon 08:42:00 AM 33.6333 -84.4167 301° West  Level FlightAware Approximate
Mon 08:42:56 AM 33.6167 -84.3833 270° West 124 143 1,500  Level Atlanta TRACON

Login

Don't have an account? Register now (free) for customized features, flight alerts, and more!